Strona główna
METAR-TAF:

METAR-TAF

Lotnisko :

Sullivan County International Airport

Monticello, Nowy Jork, Stany Zjednoczone

Szerokość geograficzna: 41-42N, Długość geograficzna: 074-48W, wysokość: 428 m

Aktualna obserwacja pogody

Raport powstał 28 minut temu, godzina 02:56 UTC
Wiatr 4 kt od północny zachód
Temperatura 7°C
Wilgotność 93%
Ciśnienie 1013 hPa
Widzialność: 16.1 km
Przerywane chmury na wysokości 3400 ft
Zachmurzenie całkowite na wysokości 4400 ft

METAR: KMSV 040256Z AUTO 32004KT 10SM BKN034 OVC044 07/06 A2990 RMK AO2 RAB21E36 SLP133 P0000 60000 T00670056 51006

czas: 23:24 (03:24 UTC)


TAF: brakujący

Obserwacja i prognoza pogody dla ponad 4000 lotnisk (raport METAR i TAF).

Dostępne stacje oznaczono żółtymi i czerwonymi punktami na mapie.

Najedź kursorem aby zobaczyć nazwę stacji.

Kliknij aby zobaczyć obserwacje i prognozy pogody.

Aby zmienić mapę: kliknij na zielony przycisk z czarnym krzyżykiem, aby powiększyć; na zielony przycisk z myślnikiem, aby pomniejszyć; na zielone strzałki, aby przejść do map sąsiednich.


METAR-TAF: